Aviation Digital Data Service (ADDS)

Output produced by METARs form (0609 UTC 16 February 2019)
found at http://www.aviationweather.gov/metar/data/
 
Forecast for: KJFK (NYC/JFK ARPT , NY, US)
Text: KJFK 160540Z 1606/1712 31011G18KT P6SM FEW060 SCT150 BKN200
Forecast period: 0600 to 0900 UTC 16 February 2019
Forecast type: FROM: standard forecast or significant change
Winds: from the NW (310 degrees) at 13 MPH (11 knots; 5.7 m/s)
gusting to 21 MPH (18 knots; 9.3 m/s)
Visibility: 6 or more miles 10+ km)
Ceiling: 20000 feet AGL
Clouds: few clouds at 6000 feet AGL
scattered clouds at 15000 feet AGL
broken clouds at 20000 feet AGL
Weather: no significant weather forecast for this period
Text: FM160900 33012KT P6SM SCT200
Forecast period: 0900 UTC 16 February 2019 to 0300 UTC 17 February 2019
Forecast type: FROM: standard forecast or significant change
Winds: from the NNW (330 degrees) at 14 MPH (12 knots; 6.2 m/s)
Visibility: 6 or more miles 10+ km)
Ceiling: at least 12,000 feet AGL
Clouds: scattered clouds at 20000 feet AGL
Weather: no significant weather forecast for this period
Text: FM170300 36010KT P6SM SKC
Forecast period: 0300 to 1200 UTC 17 February 2019
Forecast type: FROM: standard forecast or significant change
Winds: from the N (360 degrees) at 12 MPH (10 knots; 5.1 m/s)
Visibility: 6 or more miles 10+ km)
Clouds: clear skies
Weather: no significant weather forecast for this period